Time;durP1;ratioP1;P1;durP2;ratioP2;P2;SDS_P1;SDS_P2;PMS_P1;PMS_P2;Temp;Humidity;BMP_temperature;BMP_pressure;BME280_temperature;BME280_humidity;BME280_pressure;Samples;Min_cycle;Max_cycle;Signal;HPM_P1;HPM_P2
2023/08/19 00:03:02;;;;;;;4.57;3.85;;;29.60;69.50;;;;;;10530741;28;20048;-36
2023/08/19 00:08:04;;;;;;;4.25;3.85;;;29.60;69.60;;;;;;10530860;28;20074;-36
2023/08/19 00:13:07;;;;;;;4.13;3.83;;;29.50;69.60;;;;;;10527389;28;20606;-35
2023/08/19 00:18:11;;;;;;;4.15;3.78;;;29.50;69.80;;;;;;10534923;28;20135;-33
2023/08/19 00:23:15;;;;;;;5.70;4.07;;;29.50;69.90;;;;;;10569047;28;20044;-41
2023/08/19 00:28:19;;;;;;;5.85;3.80;;;29.50;70.00;;;;;;10540907;28;20051;-40
2023/08/19 00:33:23;;;;;;;5.25;3.90;;;29.50;70.00;;;;;;10525727;28;20432;-39
2023/08/19 00:38:24;;;;;;;4.03;3.63;;;29.50;70.20;;;;;;10532387;28;20056;-36
2023/08/19 00:43:28;;;;;;;4.68;4.28;;;29.40;70.20;;;;;;10534907;28;20081;-32
2023/08/19 00:48:30;;;;;;;4.43;4.03;;;29.40;70.30;;;;;;10525718;28;20460;-35
2023/08/19 00:53:34;;;;;;;4.28;3.88;;;29.40;70.30;;;;;;10530166;28;20127;-39
2023/08/19 00:58:37;;;;;;;3.40;3.10;;;29.40;70.50;;;;;;10520017;28;20055;-44
2023/08/19 01:03:39;;;;;;;4.28;3.53;;;29.40;70.40;;;;;;10536864;28;20677;-42
2023/08/19 01:08:48;;;;;;;4.43;4.03;;;29.30;70.50;;;;;;10534277;28;20044;-42
2023/08/19 01:13:59;;;;;;;4.43;3.85;;;29.30;70.50;;;;;;10514187;28;20132;-38
2023/08/19 01:19:03;;;;;;;3.90;3.53;;;29.30;70.70;;;;;;10523195;28;20136;-40
2023/08/19 01:24:07;;;;;;;4.65;4.10;;;29.30;70.80;;;;;;10544751;28;20435;-34
2023/08/19 01:29:10;;;;;;;4.80;4.25;;;29.30;70.80;;;;;;10537478;28;20047;-40
2023/08/19 01:34:14;;;;;;;6.18;4.03;;;29.30;70.90;;;;;;10526783;28;20040;-41
2023/08/19 01:39:18;;;;;;;4.95;3.85;;;29.30;71.10;;;;;;10534955;28;20488;-35
2023/08/19 01:44:22;;;;;;;5.30;3.60;;;29.30;71.10;;;;;;10534956;28;20481;-37
2023/08/19 01:49:24;;;;;;;3.80;3.45;;;29.20;71.10;;;;;;10504447;28;20056;-40
2023/08/19 01:54:26;;;;;;;4.00;3.65;;;29.20;71.20;;;;;;10533826;28;20189;-35
2023/08/19 01:59:29;;;;;;;4.60;3.60;;;29.20;71.30;;;;;;10526009;28;20143;-36
2023/08/19 02:04:33;;;;;;;4.10;3.67;;;29.20;71.40;;;;;;10515617;28;20044;-41
2023/08/19 02:09:35;;;;;;;4.68;3.95;;;29.20;71.50;;;;;;10537809;28;20052;-34
2023/08/19 02:14:38;;;;;;;4.03;3.63;;;29.20;71.60;;;;;;10515030;28;20558;-35
2023/08/19 02:19:40;;;;;;;4.07;3.35;;;29.20;71.50;;;;;;10516550;28;20056;-41
2023/08/19 02:24:42;;;;;;;4.45;4.05;;;29.20;71.60;;;;;;10537249;28;20491;-35
2023/08/19 02:29:45;;;;;;;4.63;3.50;;;29.20;71.80;;;;;;10528681;28;20087;-34
2023/08/19 02:34:47;;;;;;;4.15;3.75;;;29.10;71.90;;;;;;10523730;28;20044;-40
2023/08/19 02:39:49;;;;;;;4.07;3.50;;;29.20;72.00;;;;;;10532362;28;20082;-36
2023/08/19 02:44:52;;;;;;;3.95;3.58;;;29.10;71.90;;;;;;10536154;28;20450;-38
2023/08/19 02:49:54;;;;;;;4.70;4.13;;;29.10;72.00;;;;;;10536457;28;20048;-32
2023/08/19 02:54:56;;;;;;;3.95;3.65;;;29.10;72.20;;;;;;10508961;28;20055;-39
2023/08/19 03:15:28;;;;;;;4.28;3.78;;;28.90;73.00;;;;;;10487848;27;2034142;-35
2023/08/19 03:20:30;;;;;;;4.18;3.78;;;28.90;73.60;;;;;;10553525;28;20036;-35
2023/08/19 03:25:32;;;;;;;4.43;4.00;;;28.90;73.20;;;;;;10567342;28;20132;-40
2023/08/19 03:30:38;;;;;;;5.15;4.03;;;29.00;73.10;;;;;;10553067;28;20043;-35
2023/08/19 03:35:40;;;;;;;4.18;3.83;;;29.00;73.20;;;;;;10557229;28;20060;-33
2023/08/19 03:40:42;;;;;;;4.25;3.78;;;29.00;73.20;;;;;;10563558;28;20043;-34
2023/08/19 03:45:45;;;;;;;3.88;3.58;;;29.00;73.20;;;;;;10548204;28;20071;-37
2023/08/19 03:50:47;;;;;;;4.53;4.13;;;28.90;73.30;;;;;;10559195;28;20048;-35
2023/08/19 03:55:50;;;;;;;4.78;4.28;;;28.90;73.40;;;;;;10545171;28;20449;-31
2023/08/19 04:00:53;;;;;;;4.15;3.78;;;28.90;73.40;;;;;;10555178;28;20512;-34
2023/08/19 04:05:55;;;;;;;4.50;4.10;;;28.90;73.60;;;;;;10573359;28;20036;-37
2023/08/19 04:11:03;;;;;;;4.32;3.70;;;28.90;73.60;;;;;;10547787;28;20144;-37
2023/08/19 04:16:08;;;;;;;4.70;4.30;;;28.90;73.70;;;;;;10544445;28;20067;-33
2023/08/19 04:21:10;;;;;;;4.70;4.28;;;28.90;73.80;;;;;;10546387;28;20056;-38
2023/08/19 04:26:12;;;;;;;5.60;4.43;;;28.90;73.80;;;;;;10537959;28;20066;-34
2023/08/19 04:31:15;;;;;;;4.90;4.40;;;28.90;73.90;;;;;;10520865;28;20052;-35
2023/08/19 04:36:17;;;;;;;6.13;4.25;;;28.90;74.00;;;;;;10531105;28;20109;-35
2023/08/19 04:41:19;;;;;;;4.40;3.88;;;28.90;74.10;;;;;;10536324;28;20441;-33
2023/08/19 04:46:23;;;;;;;4.53;3.97;;;28.90;74.10;;;;;;10534378;28;20097;-38
2023/08/19 04:51:25;;;;;;;4.90;4.40;;;28.90;74.30;;;;;;10516421;28;20055;-36
2023/08/19 04:56:27;;;;;;;4.32;3.92;;;28.90;74.40;;;;;;10523153;28;20040;-35
2023/08/19 05:01:30;;;;;;;5.30;4.10;;;28.90;74.30;;;;;;10526870;28;20056;-36
2023/08/19 05:06:32;;;;;;;5.35;4.47;;;28.90;74.60;;;;;;10527960;28;20055;-35
2023/08/19 05:11:35;;;;;;;5.85;4.10;;;28.90;74.50;;;;;;10524047;28;20099;-39
2023/08/19 05:16:38;;;;;;;4.55;4.13;;;28.80;74.50;;;;;;10524733;28;20045;-34
2023/08/19 05:21:42;;;;;;;4.85;4.18;;;28.80;74.60;;;;;;10513091;28;20064;-35
2023/08/19 05:26:45;;;;;;;4.93;4.45;;;28.80;74.60;;;;;;10520897;28;20044;-34
2023/08/19 05:31:48;;;;;;;4.25;3.88;;;28.80;74.80;;;;;;10515768;28;20048;-33
2023/08/19 05:36:50;;;;;;;4.57;4.18;;;28.80;74.70;;;;;;10524398;28;20056;-34
2023/08/19 05:41:52;;;;;;;5.05;4.60;;;28.80;74.60;;;;;;10506925;28;20040;-34
2023/08/19 05:46:55;;;;;;;5.95;4.25;;;28.80;74.80;;;;;;10517663;28;20071;-38
2023/08/19 05:51:57;;;;;;;4.78;4.22;;;28.70;74.90;;;;;;10511962;28;20098;-40
2023/08/19 05:56:58;;;;;;;5.32;4.30;;;28.70;74.90;;;;;;10510605;28;20048;-37
2023/08/19 06:02:02;;;;;;;5.13;4.30;;;28.70;75.00;;;;;;10506585;28;20050;-43
2023/08/19 06:07:04;;;;;;;4.60;3.78;;;28.70;74.80;;;;;;10511153;28;20037;-36
2023/08/19 06:12:06;;;;;;;9.27;6.10;;;28.70;75.50;;;;;;10514948;28;20052;-31
2023/08/19 06:17:09;;;;;;;5.47;4.40;;;28.40;78.90;;;;;;10525959;28;20089;-38
2023/08/19 06:22:11;;;;;;;7.68;5.85;;;28.40;78.10;;;;;;10522037;28;20067;-35
2023/08/19 06:27:13;;;;;;;7.47;6.15;;;27.90;82.60;;;;;;10521813;28;20054;-37
2023/08/19 06:32:17;;;;;;;7.32;5.47;;;27.50;90.70;;;;;;10516143;28;20130;-37
2023/08/19 06:37:21;;;;;;;10.43;6.85;;;27.20;90.20;;;;;;10530207;28;20127;-35
2023/08/19 06:42:24;;;;;;;15.07;8.35;;;26.80;94.00;;;;;;10519606;28;20552;-40
2023/08/19 06:47:31;;;;;;;7.57;6.25;;;26.50;96.60;;;;;;10520361;28;20468;-37
2023/08/19 06:52:33;;;;;;;14.13;8.65;;;26.20;97.90;;;;;;10503670;28;20076;-34
2023/08/19 06:57:39;;;;;;;5.82;5.22;;;25.40;99.90;;;;;;10506698;28;20072;-36
2023/08/19 07:02:43;;;;;;;8.48;5.35;;;27.10;95.00;;;;;;10512902;28;20043;-38
2023/08/19 07:07:52;;;;;;;9.63;6.07;;;27.40;93.70;;;;;;10519864;28;20102;-46
2023/08/19 07:12:54;;;;;;;8.98;5.63;;;27.70;92.50;;;;;;10516405;28;20152;-35
2023/08/19 07:18:00;;;;;;;8.73;6.10;;;27.90;92.00;;;;;;10517425;28;20044;-36
2023/08/19 07:23:04;;;;;;;8.15;5.00;;;27.90;92.10;;;;;;10517314;28;20044;-34
2023/08/19 07:28:07;;;;;;;10.43;6.63;;;28.20;89.50;;;;;;10503952;28;20414;-38
2023/08/19 07:33:11;;;;;;;8.45;6.10;;;28.10;90.50;;;;;;10516338;28;20047;-35
2023/08/19 07:38:13;;;;;;;16.80;11.63;;;27.60;92.00;;;;;;10508879;28;20105;-39
2023/08/19 07:43:15;;;;;;;8.73;5.88;;;27.80;92.60;;;;;;10507869;28;20120;-42
2023/08/19 07:48:18;;;;;;;13.68;8.30;;;26.70;95.70;;;;;;10490851;28;20559;-39
2023/08/19 07:53:20;;;;;;;14.27;8.75;;;26.60;96.30;;;;;;10504327;28;20156;-43
2023/08/19 07:58:22;;;;;;;20.15;11.43;;;27.40;93.80;;;;;;10509987;28;20040;-40
2023/08/19 08:03:25;;;;;;;9.18;5.97;;;27.30;94.30;;;;;;10518803;28;20044;-40
2023/08/19 08:08:27;;;;;;;9.27;6.30;;;26.70;96.00;;;;;;10527212;28;20036;-33
2023/08/19 08:13:30;;;;;;;9.75;6.00;;;25.90;99.90;;;;;;10510978;28;20083;-44
2023/08/19 08:18:34;;;;;;;7.85;4.85;;;25.30;99.90;;;;;;10521729;28;20072;-38
2023/08/19 08:23:36;;;;;;;8.27;4.90;;;25.70;99.90;;;;;;10514634;28;20044;-35
2023/08/19 08:28:39;;;;;;;7.53;5.20;;;25.90;99.90;;;;;;10527959;28;20093;-33
2023/08/19 08:33:42;;;;;;;9.23;4.80;;;26.20;98.70;;;;;;10507930;28;20097;-36
2023/08/19 08:38:44;;;;;;;5.88;4.03;;;26.40;98.80;;;;;;10514298;28;20109;-36
2023/08/19 08:43:48;;;;;;;7.88;4.60;;;25.70;99.30;;;;;;10521923;28;20140;-33
2023/08/19 08:48:54;;;;;;;11.75;4.90;;;25.50;99.90;;;;;;10507224;28;20052;-38
2023/08/19 08:53:57;;;;;;;8.32;4.05;;;25.40;99.90;;;;;;10518629;28;20145;-38
2023/08/19 08:58:59;;;;;;;8.65;4.63;;;25.40;99.90;;;;;;10519148;28;20055;-37
2023/08/19 09:04:06;;;;;;;5.43;3.53;;;25.30;99.90;;;;;;10512938;28;20132;-42
2023/08/19 09:09:10;;;;;;;6.03;3.30;;;25.10;99.90;;;;;;10507627;28;20127;-37
2023/08/19 09:14:18;;;;;;;8.57;3.65;;;25.50;97.80;;;;;;10522741;28;20048;-40
2023/08/19 09:19:21;;;;;;;6.10;3.97;;;25.40;98.20;;;;;;10508287;28;20075;-33
2023/08/19 09:24:23;;;;;;;6.35;4.20;;;25.20;99.10;;;;;;10519630;28;20200;-36
2023/08/19 09:29:25;;;;;;;5.82;3.85;;;25.00;99.90;;;;;;10520591;28;20378;-34
2023/08/19 09:34:28;;;;;;;;;;;24.80;99.90;;;;;;10524341;28;20154;-33
2023/08/19 09:39:34;;;;;;;13.93;7.00;;;24.60;99.90;;;;;;10507032;28;19967;-38
2023/08/19 09:44:40;;;;;;;9.85;6.22;;;25.10;99.90;;;;;;10530684;28;20044;-35
2023/08/19 09:49:44;;;;;;;9.82;6.53;;;25.00;99.90;;;;;;10522009;28;20048;-36
2023/08/19 09:54:52;;;;;;;7.47;4.65;;;25.20;99.90;;;;;;10516373;28;20646;-36
2023/08/19 09:59:53;;;;;;;17.08;5.72;;;25.00;99.90;;;;;;10527914;28;20702;-43
2023/08/19 10:04:57;;;;;;;15.55;6.63;;;25.20;99.90;;;;;;10511345;28;20040;-43
2023/08/19 10:10:04;;;;;;;16.90;8.48;;;25.50;99.90;;;;;;10516568;28;20528;-37
2023/08/19 10:15:09;;;;;;;13.30;7.50;;;25.30;99.90;;;;;;10513937;28;20500;-34
2023/08/19 10:20:17;;;;;;;9.23;5.03;;;24.80;99.90;;;;;;10526732;28;20124;-37
2023/08/19 10:25:21;;;;;;;11.63;4.72;;;25.20;99.90;;;;;;10521890;28;20076;-39
2023/08/19 10:30:31;;;;;;;12.65;4.90;;;25.70;99.90;;;;;;10516495;28;20098;-37
2023/08/19 10:35:59;;;;;;;11.15;4.15;;;24.90;99.90;;;;;;10516104;28;20438;-34
2023/08/19 10:41:02;;;;;;;14.15;5.25;;;24.80;99.90;;;;;;10505566;28;20048;-36
2023/08/19 10:46:07;;;;;;;9.38;4.00;;;25.10;99.90;;;;;;10510891;28;20044;-38
2023/08/19 10:51:10;;;;;;;10.73;4.32;;;24.40;99.90;;;;;;10510070;28;20544;-40
2023/08/19 10:56:14;;;;;;;12.38;4.88;;;23.70;99.90;;;;;;10510203;28;20054;-40
2023/08/19 11:01:16;;;;;;;14.05;3.83;;;23.80;99.90;;;;;;10512563;28;20059;-34
2023/08/19 11:06:19;;;;;;;;;;;23.70;99.90;;;;;;10523835;28;20455;-37
2023/08/19 11:11:21;;;;;;;12.50;4.05;;;23.60;99.90;;;;;;10517970;28;20338;-38
2023/08/19 11:16:27;;;;;;;7.80;3.10;;;24.60;99.90;;;;;;10522206;28;20457;-41
2023/08/19 11:21:31;;;;;;;10.98;2.50;;;23.50;99.90;;;;;;10517891;28;20047;-36
2023/08/19 11:26:33;;;;;;;12.18;3.00;;;23.60;99.70;;;;;;10515988;28;20044;-35
2023/08/19 11:31:35;;;;;;;9.27;2.20;;;23.60;99.90;;;;;;10522788;28;20127;-38
2023/08/19 11:36:38;;;;;;;;;;;23.30;99.90;;;;;;10525719;28;20048;-37
2023/08/19 11:41:40;;;;;;;8.38;3.03;;;23.80;99.90;;;;;;10530398;28;20010;-37
2023/08/19 11:46:42;;;;;;;;;;;24.50;97.40;;;;;;10529175;28;20481;-35
2023/08/19 11:51:45;;;;;;;13.88;2.53;;;23.20;99.90;;;;;;10532228;28;19920;-37
2023/08/19 11:56:48;;;;;;;10.77;2.75;;;23.00;99.90;;;;;;10518146;28;20071;-36
2023/08/19 12:01:50;;;;;;;16.88;3.53;;;23.10;99.90;;;;;;10537752;28;20681;-34
2023/08/19 12:06:53;;;;;;;14.68;2.67;;;23.20;99.90;;;;;;10537631;28;20074;-35
2023/08/19 12:12:02;;;;;;;12.65;2.67;;;22.80;99.90;;;;;;10526956;28;20078;-37
2023/08/19 12:17:04;;;;;;;17.85;2.78;;;22.90;99.90;;;;;;10526823;28;20048;-42
2023/08/19 12:22:08;;;;;;;29.77;3.67;;;22.60;99.90;;;;;;10530731;28;20093;-34
2023/08/19 12:27:10;;;;;;;12.23;3.45;;;21.70;99.90;;;;;;10523649;28;20071;-36
2023/08/19 12:32:12;;;;;;;13.98;3.13;;;22.70;99.90;;;;;;10534040;28;20071;-34
2023/08/19 12:37:15;;;;;;;18.85;2.75;;;22.30;99.90;;;;;;10531842;28;20056;-34
2023/08/19 12:42:17;;;;;;;20.50;2.80;;;22.60;99.90;;;;;;10512388;28;20517;-43
2023/08/19 12:47:19;;;;;;;;;;;22.60;99.90;;;;;;10528375;28;20481;-43
2023/08/19 12:52:22;;;;;;;23.23;4.50;;;23.10;99.90;;;;;;10521966;28;19924;-40
2023/08/19 12:57:25;;;;;;;15.35;2.45;;;23.40;98.70;;;;;;10525639;28;20121;-33
2023/08/19 13:02:27;;;;;;;11.63;2.60;;;23.00;99.90;;;;;;10518891;28;20044;-38
2023/08/19 13:07:30;;;;;;;;;;;22.60;99.90;;;;;;10521667;28;20048;-37
2023/08/19 13:12:32;;;;;;;18.55;2.83;;;22.90;99.90;;;;;;10517541;28;20555;-39
2023/08/19 13:17:34;;;;;;;14.80;2.25;;;24.00;97.60;;;;;;10527315;28;20047;-36
2023/08/19 13:22:37;;;;;;;;;;;23.40;99.90;;;;;;10527298;28;20079;-38
2023/08/19 13:27:39;;;;;;;15.60;3.28;;;23.10;99.90;;;;;;10523936;28;19970;-39
2023/08/19 13:32:42;;;;;;;11.68;2.42;;;23.00;99.90;;;;;;10524481;28;20048;-34
2023/08/19 13:37:45;;;;;;;9.30;1.58;;;23.80;97.20;;;;;;10520216;28;20404;-37
2023/08/19 13:42:47;;;;;;;8.75;1.80;;;24.40;94.20;;;;;;10516308;28;20101;-40
2023/08/19 13:47:49;;;;;;;;;;;24.70;95.00;;;;;;10527901;28;20504;-41
2023/08/19 13:52:52;;;;;;;11.55;1.98;;;24.80;91.50;;;;;;10523421;28;19971;-37
2023/08/19 13:57:54;;;;;;;13.32;1.80;;;24.80;92.90;;;;;;10519316;28;20063;-39
2023/08/19 14:02:56;;;;;;;8.30;1.70;;;24.50;93.80;;;;;;10521125;28;20048;-40
2023/08/19 14:08:00;;;;;;;13.73;2.20;;;25.20;92.20;;;;;;10533371;28;20048;-38
2023/08/19 14:13:01;;;;;;;8.13;1.77;;;25.80;83.90;;;;;;10523671;28;20060;-42
2023/08/19 14:18:04;;;;;;;5.70;1.30;;;26.30;79.80;;;;;;10524177;28;20071;-36
2023/08/19 14:23:07;;;;;;;8.48;1.45;;;26.70;84.40;;;;;;10525789;28;20514;-41
2023/08/19 14:28:09;;;;;;;6.43;2.05;;;26.50;78.20;;;;;;10526898;28;20043;-34
2023/08/19 14:33:11;;;;;;;4.63;1.40;;;26.30;90.80;;;;;;10521117;28;20044;-33
2023/08/19 14:38:14;;;;;;;8.73;1.25;;;26.00;77.40;;;;;;10518738;28;20107;-34
2023/08/19 14:43:16;;;;;;;6.55;1.48;;;26.90;86.20;;;;;;10526656;28;20071;-36
2023/08/19 14:48:18;;;;;;;5.10;0.82;;;27.40;86.20;;;;;;10534702;28;20047;-37
2023/08/19 14:53:21;;;;;;;5.75;1.00;;;27.10;72.00;;;;;;10526658;28;20140;-38
2023/08/19 14:58:27;;;;;;;9.52;1.15;;;27.40;82.70;;;;;;10530098;28;20758;-38
2023/08/19 15:03:28;;;;;;;4.45;1.20;;;27.40;68.60;;;;;;10514278;28;20453;-39
2023/08/19 15:08:32;;;;;;;7.57;1.05;;;27.00;80.50;;;;;;10532562;28;20425;-38
2023/08/19 15:13:34;;;;;;;5.82;1.10;;;28.00;66.90;;;;;;10518101;28;20055;-40
2023/08/19 15:18:36;;;;;;;6.40;1.15;;;28.30;63.80;;;;;;10519601;28;20103;-37
2023/08/19 15:23:39;;;;;;;4.72;1.00;;;28.40;60.70;;;;;;10518464;28;20044;-39
2023/08/19 15:28:42;;;;;;;4.88;1.08;;;28.80;59.90;;;;;;10523585;28;20131;-44
2023/08/19 15:33:44;;;;;;;5.72;1.20;;;29.80;60.80;;;;;;10517847;28;20151;-38
2023/08/19 15:38:47;;;;;;;5.10;1.08;;;30.00;71.30;;;;;;10520503;28;20119;-34
2023/08/19 15:43:49;;;;;;;9.25;1.30;;;29.70;60.50;;;;;;10521565;28;20040;-44
2023/08/19 15:48:51;;;;;;;5.13;0.90;;;29.10;59.80;;;;;;10526950;28;20508;-41
2023/08/19 15:53:54;;;;;;;8.95;1.20;;;29.40;58.00;;;;;;10526172;28;20044;-41
2023/08/19 15:58:56;;;;;;;2.97;0.70;;;30.40;57.60;;;;;;10528865;28;20131;-35
2023/08/19 16:03:58;;;;;;;4.60;1.00;;;30.60;56.50;;;;;;10504995;28;20048;-34
2023/08/19 16:09:01;;;;;;;7.03;1.35;;;30.40;55.00;;;;;;10520685;28;20117;-37
2023/08/19 16:14:03;;;;;;;5.05;1.48;;;30.20;59.60;;;;;;10508692;28;20514;-33
2023/08/19 16:19:04;;;;;;;4.07;1.02;;;30.40;60.30;;;;;;10515518;28;20162;-33
2023/08/19 16:24:08;;;;;;;4.80;0.93;;;30.90;72.80;;;;;;10516506;28;20071;-33
2023/08/19 16:29:11;;;;;;;4.13;1.00;;;31.10;60.30;;;;;;10525411;28;20063;-35
2023/08/19 16:34:13;;;;;;;7.68;2.63;;;31.40;72.90;;;;;;10518183;28;20048;-34
2023/08/19 16:39:16;;;;;;;4.25;1.05;;;31.40;65.20;;;;;;10524013;28;20097;-36
2023/08/19 16:44:18;;;;;;;5.55;1.20;;;31.10;56.00;;;;;;10533554;28;20135;-34
2023/08/19 16:49:19;;;;;;;4.40;0.88;;;30.90;75.10;;;;;;10527347;28;20481;-33
2023/08/19 16:54:23;;;;;;;3.75;0.90;;;31.00;70.90;;;;;;10522553;28;20047;-32
2023/08/19 16:59:25;;;;;;;4.47;1.15;;;31.30;68.70;;;;;;10530024;28;20123;-34
2023/08/19 17:04:26;;;;;;;6.25;1.13;;;31.10;56.90;;;;;;10515661;28;20072;-33
2023/08/19 17:09:30;;;;;;;4.65;1.10;;;31.30;62.00;;;;;;10530584;28;20075;-35
2023/08/19 17:14:32;;;;;;;5.35;1.20;;;30.90;63.60;;;;;;10515103;28;20051;-33
2023/08/19 17:19:33;;;;;;;7.50;1.17;;;30.00;70.80;;;;;;10527641;28;20056;-37
2023/08/19 17:24:37;;;;;;;5.70;0.93;;;30.70;61.40;;;;;;10514916;28;20063;-32
2023/08/19 17:29:39;;;;;;;5.78;1.20;;;30.70;61.30;;;;;;10520128;28;20155;-38
2023/08/19 17:34:40;;;;;;;8.75;1.55;;;30.20;57.80;;;;;;10526087;28;20056;-38
2023/08/19 17:39:44;;;;;;;8.82;1.73;;;29.50;60.30;;;;;;10515645;28;20094;-37
2023/08/19 17:44:53;;;;;;;2.97;1.00;;;30.10;71.90;;;;;;10523780;28;20048;-35
2023/08/19 17:49:55;;;;;;;6.45;1.45;;;29.60;81.20;;;;;;10504336;28;20131;-36
2023/08/19 17:54:58;;;;;;;3.67;1.45;;;30.80;81.10;;;;;;10511798;28;20444;-35
2023/08/19 18:00:01;;;;;;;9.32;1.80;;;31.80;84.10;;;;;;10511305;28;20064;-38
2023/08/19 18:05:03;;;;;;;8.77;1.50;;;31.30;58.60;;;;;;10531199;28;20102;-35
2023/08/19 18:10:07;;;;;;;6.63;1.40;;;30.30;86.90;;;;;;10529705;28;20044;-34
2023/08/19 18:15:10;;;;;;;5.28;1.17;;;31.80;93.20;;;;;;10520804;28;20051;-38
2023/08/19 18:20:12;;;;;;;6.05;1.40;;;31.10;69.20;;;;;;10519100;28;20522;-31
2023/08/19 18:25:16;;;;;;;5.80;1.13;;;32.20;80.90;;;;;;10505360;28;20052;-35
2023/08/19 18:30:18;;;;;;;7.05;1.50;;;31.60;84.70;;;;;;10520224;28;20492;-38
2023/08/19 18:35:20;;;;;;;6.65;1.42;;;31.30;83.60;;;;;;10531762;28;20711;-33
2023/08/19 18:40:23;;;;;;;4.07;1.20;;;29.80;65.80;;;;;;10527712;28;20412;-33
2023/08/19 18:45:25;;;;;;;5.80;2.03;;;29.50;92.90;;;;;;10518830;28;20141;-37
2023/08/19 18:50:27;;;;;;;11.38;2.42;;;28.20;95.40;;;;;;10518421;28;20563;-38
2023/08/19 18:55:32;;;;;;;9.27;2.15;;;27.60;68.70;;;;;;10515858;28;20052;-35
2023/08/19 19:00:35;;;;;;;6.45;1.75;;;28.30;75.30;;;;;;10512079;28;20101;-33
2023/08/19 19:05:37;;;;;;;5.80;1.88;;;30.30;81.10;;;;;;10532271;28;20043;-35
2023/08/19 19:10:42;;;;;;;9.13;1.65;;;29.30;70.00;;;;;;10526714;28;20040;-37
2023/08/19 19:15:44;;;;;;;8.93;1.80;;;26.60;84.50;;;;;;10520337;28;20212;-37
2023/08/19 19:20:47;;;;;;;11.40;1.83;;;24.90;92.40;;;;;;10527146;28;20059;-34
2023/08/19 19:25:50;;;;;;;7.45;1.90;;;24.30;94.10;;;;;;10524333;28;20044;-36
2023/08/19 19:30:53;;;;;;;7.57;1.55;;;29.30;94.30;;;;;;10518262;28;20075;-38
2023/08/19 19:35:55;;;;;;;7.93;1.98;;;30.50;87.70;;;;;;10517009;28;20052;-33
2023/08/19 19:40:58;;;;;;;8.60;1.80;;;29.10;65.20;;;;;;10520659;28;20681;-33
2023/08/19 19:46:00;;;;;;;10.48;1.98;;;28.00;68.30;;;;;;10524447;28;20056;-38
2023/08/19 19:51:03;;;;;;;11.00;2.50;;;24.50;90.40;;;;;;10523128;28;20052;-34
2023/08/19 19:56:08;;;;;;;4.07;1.67;;;24.10;92.90;;;;;;10526372;28;20044;-35
2023/08/19 20:01:11;;;;;;;3.75;1.38;;;28.40;94.30;;;;;;10530597;28;20040;-35
2023/08/19 20:06:12;;;;;;;4.38;1.17;;;30.40;79.80;;;;;;10519514;28;20076;-33
2023/08/19 20:11:16;;;;;;;4.43;1.30;;;30.60;74.90;;;;;;10527571;28;20109;-35
2023/08/19 20:16:17;;;;;;;2.88;1.00;;;30.70;73.10;;;;;;10531870;28;20080;-35
2023/08/19 20:21:19;;;;;;;5.13;1.38;;;30.70;72.30;;;;;;10526881;28;20076;-34
2023/08/19 20:26:23;;;;;;;4.78;1.30;;;30.70;72.00;;;;;;10523850;28;20082;-33
2023/08/19 20:31:26;;;;;;;6.40;1.52;;;30.70;71.60;;;;;;10526245;28;20059;-33
2023/08/19 20:36:30;;;;;;;8.15;1.30;;;30.60;71.50;;;;;;10530603;28;20116;-36
2023/08/19 20:41:33;;;;;;;4.03;1.08;;;30.60;71.20;;;;;;10527977;28;20615;-34
2023/08/19 20:46:35;;;;;;;4.25;1.08;;;30.60;71.20;;;;;;10532843;28;20446;-34
2023/08/19 20:51:37;;;;;;;5.03;1.13;;;30.50;71.30;;;;;;10527222;28;20059;-38
2023/08/19 20:56:41;;;;;;;5.38;1.13;;;30.50;70.80;;;;;;10527098;28;20091;-36
2023/08/19 21:01:43;;;;;;;5.68;1.13;;;30.50;70.50;;;;;;10521923;28;20068;-38
2023/08/19 21:06:48;;;;;;;3.70;1.05;;;30.20;71.60;;;;;;10521908;28;20048;-34
2023/08/19 21:11:52;;;;;;;6.05;1.55;;;30.30;71.60;;;;;;10511391;28;20056;-34
2023/08/19 21:16:55;;;;;;;3.70;1.35;;;30.30;71.60;;;;;;10517192;28;20355;-40
2023/08/19 21:21:59;;;;;;;3.85;0.90;;;30.30;71.70;;;;;;10528519;28;20143;-38
2023/08/19 21:27:02;;;;;;;3.97;0.90;;;30.20;71.50;;;;;;10531685;28;20424;-37
2023/08/19 21:32:04;;;;;;;1.45;0.80;;;30.20;71.40;;;;;;10527262;28;20542;-38
2023/08/19 21:37:06;;;;;;;2.30;0.93;;;30.20;71.30;;;;;;10525238;28;20079;-34
2023/08/19 21:42:09;;;;;;;3.13;0.82;;;30.10;71.30;;;;;;10537150;28;20097;-37
2023/08/19 21:47:11;;;;;;;2.05;0.90;;;30.10;71.20;;;;;;10512167;28;20052;-39
2023/08/19 21:52:14;;;;;;;2.78;0.88;;;30.10;71.10;;;;;;10524078;28;20098;-35
2023/08/19 21:57:17;;;;;;;1.40;0.60;;;30.00;71.00;;;;;;10514571;28;20135;-36
2023/08/19 22:02:19;;;;;;;1.92;0.93;;;30.00;71.00;;;;;;10511621;28;20602;-41
2023/08/19 22:07:21;;;;;;;2.90;1.10;;;29.90;71.00;;;;;;10513965;28;20489;-37
2023/08/19 22:12:24;;;;;;;2.80;0.88;;;29.90;70.90;;;;;;10505088;28;20109;-38
2023/08/19 22:17:26;;;;;;;1.05;0.60;;;29.80;71.00;;;;;;10519557;28;20080;-37
2023/08/19 22:22:28;;;;;;;2.10;0.63;;;29.80;70.90;;;;;;10527306;28;20100;-39
2023/08/19 22:27:31;;;;;;;1.85;0.70;;;29.80;70.90;;;;;;10523218;28;20137;-39
2023/08/19 22:32:33;;;;;;;4.10;0.95;;;29.70;70.90;;;;;;10524572;28;20079;-38
2023/08/19 22:37:35;;;;;;;4.50;0.60;;;29.70;71.00;;;;;;10513108;28;20071;-33
2023/08/19 22:42:38;;;;;;;2.50;0.70;;;29.60;70.20;;;;;;10510671;28;20040;-41
2023/08/19 22:47:40;;;;;;;2.55;0.52;;;29.60;69.90;;;;;;10513622;28;20093;-33
2023/08/19 22:52:42;;;;;;;2.42;0.73;;;29.60;70.80;;;;;;10519814;28;20090;-36
2023/08/19 22:57:46;;;;;;;1.35;0.43;;;29.50;70.70;;;;;;10510459;28;20056;-37
2023/08/19 23:02:48;;;;;;;3.42;0.60;;;29.50;70.70;;;;;;10519691;28;20458;-43
2023/08/19 23:07:49;;;;;;;1.77;0.60;;;29.50;70.60;;;;;;10531097;28;20044;-39
2023/08/19 23:12:52;;;;;;;2.25;0.80;;;29.40;70.60;;;;;;10526294;28;20139;-36
2023/08/19 23:17:54;;;;;;;2.83;1.00;;;29.40;70.70;;;;;;10510212;28;20472;-34
2023/08/19 23:22:56;;;;;;;1.40;0.70;;;29.30;70.70;;;;;;10524346;28;20048;-35
2023/08/19 23:28:00;;;;;;;1.83;0.63;;;29.30;70.60;;;;;;10532154;28;20039;-36
2023/08/19 23:33:02;;;;;;;2.83;0.50;;;29.30;70.50;;;;;;10523064;28;20093;-35
2023/08/19 23:38:04;;;;;;;2.05;0.73;;;29.30;70.70;;;;;;10526965;28;20469;-37
2023/08/19 23:43:07;;;;;;;2.45;0.47;;;29.20;70.60;;;;;;10527899;28;20044;-34
2023/08/19 23:48:11;;;;;;;1.48;0.63;;;29.20;70.70;;;;;;10531553;28;20082;-39
2023/08/19 23:53:13;;;;;;;1.88;0.52;;;29.20;70.70;;;;;;10520669;28;20119;-33
2023/08/19 23:58:18;;;;;;;1.92;0.60;;;29.10;70.60;;;;;;10532850;28;20094;-33
